sensor_id;sensor_type;location;lat;lon;timestamp;P1;durP1;ratioP1;P2;durP2;ratioP2
23406;SDS011;11876;53.438;18.942;2023-11-18T00:02:01;42.17;;;30.35;;
23406;SDS011;11876;53.438;18.942;2023-11-18T00:05:04;40.20;;;29.80;;
23406;SDS011;11876;53.438;18.942;2023-11-18T00:08:09;45.92;;;26.70;;
23406;SDS011;11876;53.438;18.942;2023-11-18T00:11:11;33.22;;;22.63;;
23406;SDS011;11876;53.438;18.942;2023-11-18T00:14:14;36.65;;;24.95;;
23406;SDS011;11876;53.438;18.942;2023-11-18T00:17:17;42.50;;;32.28;;
23406;SDS011;11876;53.438;18.942;2023-11-18T00:20:21;36.08;;;26.08;;
23406;SDS011;11876;53.438;18.942;2023-11-18T00:23:25;30.42;;;22.45;;
23406;SDS011;11876;53.438;18.942;2023-11-18T00:26:28;41.80;;;23.52;;
23406;SDS011;11876;53.438;18.942;2023-11-18T00:29:33;26.65;;;18.42;;
23406;SDS011;11876;53.438;18.942;2023-11-18T00:32:35;25.45;;;18.20;;
23406;SDS011;11876;53.438;18.942;2023-11-18T00:35:39;24.35;;;16.65;;
23406;SDS011;11876;53.438;18.942;2023-11-18T00:38:42;25.75;;;17.83;;
23406;SDS011;11876;53.438;18.942;2023-11-18T00:41:45;17.37;;;13.33;;
23406;SDS011;11876;53.438;18.942;2023-11-18T00:44:48;32.28;;;23.38;;
23406;SDS011;11876;53.438;18.942;2023-11-18T00:47:50;31.90;;;22.48;;
23406;SDS011;11876;53.438;18.942;2023-11-18T00:50:53;26.73;;;21.00;;
23406;SDS011;11876;53.438;18.942;2023-11-18T00:53:55;27.23;;;20.27;;
23406;SDS011;11876;53.438;18.942;2023-11-18T00:56:58;30.63;;;24.27;;
23406;SDS011;11876;53.438;18.942;2023-11-18T01:00:00;27.52;;;22.60;;
23406;SDS011;11876;53.438;18.942;2023-11-18T01:03:06;26.58;;;20.08;;
23406;SDS011;11876;53.438;18.942;2023-11-18T01:06:09;26.40;;;18.83;;
23406;SDS011;11876;53.438;18.942;2023-11-18T01:09:12;25.08;;;18.33;;
23406;SDS011;11876;53.438;18.942;2023-11-18T01:12:14;29.00;;;20.60;;
23406;SDS011;11876;53.438;18.942;2023-11-18T01:15:17;27.17;;;20.88;;
23406;SDS011;11876;53.438;18.942;2023-11-18T01:18:19;27.20;;;21.35;;
23406;SDS011;11876;53.438;18.942;2023-11-18T01:21:22;30.92;;;22.33;;
23406;SDS011;11876;53.438;18.942;2023-11-18T01:24:25;31.17;;;25.38;;
23406;SDS011;11876;53.438;18.942;2023-11-18T01:27:27;30.45;;;22.63;;
23406;SDS011;11876;53.438;18.942;2023-11-18T01:30:30;21.42;;;17.80;;
23406;SDS011;11876;53.438;18.942;2023-11-18T01:33:33;18.23;;;13.85;;
23406;SDS011;11876;53.438;18.942;2023-11-18T01:36:39;22.25;;;16.38;;
23406;SDS011;11876;53.438;18.942;2023-11-18T01:39:41;15.98;;;11.18;;
23406;SDS011;11876;53.438;18.942;2023-11-18T01:42:44;31.15;;;24.45;;
23406;SDS011;11876;53.438;18.942;2023-11-18T01:48:51;20.00;;;16.00;;
23406;SDS011;11876;53.438;18.942;2023-11-18T01:51:54;19.88;;;16.45;;
23406;SDS011;11876;53.438;18.942;2023-11-18T01:54:58;17.85;;;13.60;;
23406;SDS011;11876;53.438;18.942;2023-11-18T01:58:01;21.05;;;17.75;;
23406;SDS011;11876;53.438;18.942;2023-11-18T02:01:09;18.90;;;14.43;;
23406;SDS011;11876;53.438;18.942;2023-11-18T02:04:12;17.17;;;13.38;;
23406;SDS011;11876;53.438;18.942;2023-11-18T02:07:15;17.42;;;11.23;;
23406;SDS011;11876;53.438;18.942;2023-11-18T02:10:19;19.60;;;12.60;;
23406;SDS011;11876;53.438;18.942;2023-11-18T02:13:27;15.85;;;11.93;;
23406;SDS011;11876;53.438;18.942;2023-11-18T02:16:32;15.80;;;11.82;;
23406;SDS011;11876;53.438;18.942;2023-11-18T02:19:35;16.52;;;12.38;;
23406;SDS011;11876;53.438;18.942;2023-11-18T02:22:37;17.88;;;12.23;;
23406;SDS011;11876;53.438;18.942;2023-11-18T02:25:42;16.98;;;12.38;;
23406;SDS011;11876;53.438;18.942;2023-11-18T02:28:46;19.75;;;13.35;;
23406;SDS011;11876;53.438;18.942;2023-11-18T02:31:49;19.83;;;16.20;;
23406;SDS011;11876;53.438;18.942;2023-11-18T02:38:12;19.88;;;15.00;;
23406;SDS011;11876;53.438;18.942;2023-11-18T02:41:15;17.93;;;13.63;;
23406;SDS011;11876;53.438;18.942;2023-11-18T02:44:20;19.10;;;14.48;;
23406;SDS011;11876;53.438;18.942;2023-11-18T02:47:25;19.70;;;14.25;;
23406;SDS011;11876;53.438;18.942;2023-11-18T02:50:28;22.65;;;15.50;;
23406;SDS011;11876;53.438;18.942;2023-11-18T02:53:31;20.48;;;15.73;;
23406;SDS011;11876;53.438;18.942;2023-11-18T02:56:34;27.35;;;20.25;;
23406;SDS011;11876;53.438;18.942;2023-11-18T02:59:37;25.52;;;19.00;;
23406;SDS011;11876;53.438;18.942;2023-11-18T03:02:40;21.33;;;16.55;;
23406;SDS011;11876;53.438;18.942;2023-11-18T03:05:42;23.50;;;15.25;;
23406;SDS011;11876;53.438;18.942;2023-11-18T03:08:45;20.33;;;13.77;;
23406;SDS011;11876;53.438;18.942;2023-11-18T03:11:47;22.27;;;15.20;;
23406;SDS011;11876;53.438;18.942;2023-11-18T03:14:53;24.58;;;21.30;;
23406;SDS011;11876;53.438;18.942;2023-11-18T03:17:55;21.15;;;16.92;;
23406;SDS011;11876;53.438;18.942;2023-11-18T03:20:58;17.05;;;12.77;;
23406;SDS011;11876;53.438;18.942;2023-11-18T03:24:02;16.98;;;13.48;;
23406;SDS011;11876;53.438;18.942;2023-11-18T03:27:04;18.00;;;15.88;;
23406;SDS011;11876;53.438;18.942;2023-11-18T03:30:07;20.92;;;14.88;;
23406;SDS011;11876;53.438;18.942;2023-11-18T03:33:11;16.42;;;12.65;;
23406;SDS011;11876;53.438;18.942;2023-11-18T03:36:15;16.95;;;13.23;;
23406;SDS011;11876;53.438;18.942;2023-11-18T03:39:19;15.65;;;12.70;;
23406;SDS011;11876;53.438;18.942;2023-11-18T03:42:22;17.77;;;12.73;;
23406;SDS011;11876;53.438;18.942;2023-11-18T03:45:25;17.00;;;12.77;;
23406;SDS011;11876;53.438;18.942;2023-11-18T03:48:28;19.85;;;14.30;;
23406;SDS011;11876;53.438;18.942;2023-11-18T03:51:30;24.80;;;19.33;;
23406;SDS011;11876;53.438;18.942;2023-11-18T03:54:33;22.08;;;18.40;;
23406;SDS011;11876;53.438;18.942;2023-11-18T03:57:35;34.15;;;22.15;;
23406;SDS011;11876;53.438;18.942;2023-11-18T04:00:38;27.65;;;23.45;;
23406;SDS011;11876;53.438;18.942;2023-11-18T04:03:41;28.83;;;24.60;;
23406;SDS011;11876;53.438;18.942;2023-11-18T04:06:44;27.60;;;22.58;;
23406;SDS011;11876;53.438;18.942;2023-11-18T04:09:48;30.42;;;23.50;;
23406;SDS011;11876;53.438;18.942;2023-11-18T04:12:50;19.35;;;15.93;;
23406;SDS011;11876;53.438;18.942;2023-11-18T04:15:53;18.15;;;13.55;;
23406;SDS011;11876;53.438;18.942;2023-11-18T04:18:55;21.27;;;14.98;;
23406;SDS011;11876;53.438;18.942;2023-11-18T04:21:58;17.55;;;13.10;;
23406;SDS011;11876;53.438;18.942;2023-11-18T04:25:00;20.85;;;14.13;;
23406;SDS011;11876;53.438;18.942;2023-11-18T04:28:03;24.17;;;19.38;;
23406;SDS011;11876;53.438;18.942;2023-11-18T04:31:05;18.80;;;13.80;;
23406;SDS011;11876;53.438;18.942;2023-11-18T04:34:08;18.95;;;13.73;;
23406;SDS011;11876;53.438;18.942;2023-11-18T04:37:10;17.23;;;13.10;;
23406;SDS011;11876;53.438;18.942;2023-11-18T04:40:13;18.08;;;14.02;;
23406;SDS011;11876;53.438;18.942;2023-11-18T04:43:16;21.73;;;16.27;;
23406;SDS011;11876;53.438;18.942;2023-11-18T04:46:25;29.58;;;19.17;;
23406;SDS011;11876;53.438;18.942;2023-11-18T04:49:28;27.17;;;18.55;;
23406;SDS011;11876;53.438;18.942;2023-11-18T04:52:31;19.07;;;11.67;;
23406;SDS011;11876;53.438;18.942;2023-11-18T04:55:37;22.98;;;13.93;;
23406;SDS011;11876;53.438;18.942;2023-11-18T04:58:40;19.45;;;13.50;;
23406;SDS011;11876;53.438;18.942;2023-11-18T05:01:42;16.40;;;12.48;;
23406;SDS011;11876;53.438;18.942;2023-11-18T05:04:45;21.83;;;13.93;;
23406;SDS011;11876;53.438;18.942;2023-11-18T05:07:47;22.25;;;14.88;;
23406;SDS011;11876;53.438;18.942;2023-11-18T05:10:50;21.70;;;14.27;;
23406;SDS011;11876;53.438;18.942;2023-11-18T05:13:53;19.13;;;12.70;;
23406;SDS011;11876;53.438;18.942;2023-11-18T05:16:55;19.75;;;13.32;;
23406;SDS011;11876;53.438;18.942;2023-11-18T05:19:59;23.83;;;14.32;;
23406;SDS011;11876;53.438;18.942;2023-11-18T05:23:02;26.42;;;16.65;;
23406;SDS011;11876;53.438;18.942;2023-11-18T05:26:05;24.50;;;13.93;;
23406;SDS011;11876;53.438;18.942;2023-11-18T05:29:08;23.95;;;16.40;;
23406;SDS011;11876;53.438;18.942;2023-11-18T05:32:10;28.17;;;17.02;;
23406;SDS011;11876;53.438;18.942;2023-11-18T05:35:13;28.42;;;18.10;;
23406;SDS011;11876;53.438;18.942;2023-11-18T05:38:20;31.85;;;18.35;;
23406;SDS011;11876;53.438;18.942;2023-11-18T05:41:29;20.65;;;13.18;;
23406;SDS011;11876;53.438;18.942;2023-11-18T05:44:32;27.80;;;17.60;;
23406;SDS011;11876;53.438;18.942;2023-11-18T05:47:39;25.08;;;15.05;;
23406;SDS011;11876;53.438;18.942;2023-11-18T05:50:41;19.35;;;14.30;;
23406;SDS011;11876;53.438;18.942;2023-11-18T05:53:48;28.77;;;17.02;;
23406;SDS011;11876;53.438;18.942;2023-11-18T05:56:50;24.85;;;15.60;;
23406;SDS011;11876;53.438;18.942;2023-11-18T05:59:58;26.73;;;17.45;;
23406;SDS011;11876;53.438;18.942;2023-11-18T06:03:00;24.77;;;17.15;;
23406;SDS011;11876;53.438;18.942;2023-11-18T06:06:03;27.42;;;19.00;;
23406;SDS011;11876;53.438;18.942;2023-11-18T06:09:15;22.27;;;14.55;;
23406;SDS011;11876;53.438;18.942;2023-11-18T06:12:22;24.98;;;16.42;;
23406;SDS011;11876;53.438;18.942;2023-11-18T06:15:25;18.33;;;14.88;;
23406;SDS011;11876;53.438;18.942;2023-11-18T06:18:29;21.90;;;14.60;;
23406;SDS011;11876;53.438;18.942;2023-11-18T06:21:33;21.60;;;15.25;;
23406;SDS011;11876;53.438;18.942;2023-11-18T06:24:36;21.95;;;15.55;;
23406;SDS011;11876;53.438;18.942;2023-11-18T06:27:42;22.25;;;15.10;;
23406;SDS011;11876;53.438;18.942;2023-11-18T06:30:47;22.42;;;15.57;;
23406;SDS011;11876;53.438;18.942;2023-11-18T06:33:49;18.48;;;14.13;;
23406;SDS011;11876;53.438;18.942;2023-11-18T06:36:55;25.77;;;17.00;;
23406;SDS011;11876;53.438;18.942;2023-11-18T06:39:58;28.10;;;16.38;;
23406;SDS011;11876;53.438;18.942;2023-11-18T06:43:00;22.70;;;16.40;;
23406;SDS011;11876;53.438;18.942;2023-11-18T06:46:04;30.65;;;19.77;;
23406;SDS011;11876;53.438;18.942;2023-11-18T06:49:07;28.75;;;19.58;;
23406;SDS011;11876;53.438;18.942;2023-11-18T06:52:13;39.97;;;23.02;;
23406;SDS011;11876;53.438;18.942;2023-11-18T06:55:15;33.05;;;20.35;;
23406;SDS011;11876;53.438;18.942;2023-11-18T06:58:18;26.20;;;16.70;;
23406;SDS011;11876;53.438;18.942;2023-11-18T07:01:21;23.95;;;16.05;;
23406;SDS011;11876;53.438;18.942;2023-11-18T07:04:23;21.52;;;15.80;;
23406;SDS011;11876;53.438;18.942;2023-11-18T07:07:26;20.77;;;15.05;;
23406;SDS011;11876;53.438;18.942;2023-11-18T07:10:29;24.13;;;19.48;;
23406;SDS011;11876;53.438;18.942;2023-11-18T07:13:32;25.50;;;18.60;;
23406;SDS011;11876;53.438;18.942;2023-11-18T07:16:38;25.52;;;18.23;;
23406;SDS011;11876;53.438;18.942;2023-11-18T07:19:41;22.63;;;15.20;;
23406;SDS011;11876;53.438;18.942;2023-11-18T07:22:45;21.17;;;15.73;;
23406;SDS011;11876;53.438;18.942;2023-11-18T07:25:48;20.92;;;15.23;;
23406;SDS011;11876;53.438;18.942;2023-11-18T07:28:50;29.05;;;21.95;;
23406;SDS011;11876;53.438;18.942;2023-11-18T07:31:53;22.23;;;17.95;;
23406;SDS011;11876;53.438;18.942;2023-11-18T07:34:58;23.70;;;17.65;;
23406;SDS011;11876;53.438;18.942;2023-11-18T07:38:02;24.58;;;20.05;;
23406;SDS011;11876;53.438;18.942;2023-11-18T07:41:04;25.37;;;18.53;;
23406;SDS011;11876;53.438;18.942;2023-11-18T07:44:10;24.75;;;18.85;;
23406;SDS011;11876;53.438;18.942;2023-11-18T07:47:14;23.70;;;18.38;;
23406;SDS011;11876;53.438;18.942;2023-11-18T07:50:18;18.70;;;12.15;;
23406;SDS011;11876;53.438;18.942;2023-11-18T07:53:24;23.83;;;16.50;;
23406;SDS011;11876;53.438;18.942;2023-11-18T07:56:27;14.52;;;11.30;;
23406;SDS011;11876;53.438;18.942;2023-11-18T07:59:30;26.35;;;18.27;;
23406;SDS011;11876;53.438;18.942;2023-11-18T08:02:33;24.60;;;16.88;;
23406;SDS011;11876;53.438;18.942;2023-11-18T08:05:38;21.17;;;15.50;;
23406;SDS011;11876;53.438;18.942;2023-11-18T08:08:45;20.75;;;16.27;;
23406;SDS011;11876;53.438;18.942;2023-11-18T08:11:49;22.40;;;13.88;;
23406;SDS011;11876;53.438;18.942;2023-11-18T08:14:52;28.85;;;16.20;;
23406;SDS011;11876;53.438;18.942;2023-11-18T08:17:55;25.25;;;17.23;;
23406;SDS011;11876;53.438;18.942;2023-11-18T08:20:57;51.47;;;28.23;;
23406;SDS011;11876;53.438;18.942;2023-11-18T08:27:05;24.38;;;17.63;;
23406;SDS011;11876;53.438;18.942;2023-11-18T08:30:08;32.35;;;18.05;;
23406;SDS011;11876;53.438;18.942;2023-11-18T08:33:14;25.15;;;15.10;;
23406;SDS011;11876;53.438;18.942;2023-11-18T08:36:17;17.30;;;12.32;;
23406;SDS011;11876;53.438;18.942;2023-11-18T08:39:20;15.00;;;11.05;;
23406;SDS011;11876;53.438;18.942;2023-11-18T08:42:22;14.70;;;11.35;;
23406;SDS011;11876;53.438;18.942;2023-11-18T08:45:26;13.20;;;9.77;;
23406;SDS011;11876;53.438;18.942;2023-11-18T08:48:31;15.70;;;11.38;;
23406;SDS011;11876;53.438;18.942;2023-11-18T08:51:35;11.73;;;8.82;;
23406;SDS011;11876;53.438;18.942;2023-11-18T08:54:39;10.25;;;8.13;;
23406;SDS011;11876;53.438;18.942;2023-11-18T08:58:01;8.48;;;7.22;;
23406;SDS011;11876;53.438;18.942;2023-11-18T09:01:05;11.30;;;8.38;;
23406;SDS011;11876;53.438;18.942;2023-11-18T09:04:16;10.90;;;8.70;;
23406;SDS011;11876;53.438;18.942;2023-11-18T09:07:21;10.23;;;7.28;;
23406;SDS011;11876;53.438;18.942;2023-11-18T09:10:24;11.98;;;8.25;;
23406;SDS011;11876;53.438;18.942;2023-11-18T09:13:26;15.15;;;12.38;;
23406;SDS011;11876;53.438;18.942;2023-11-18T09:16:30;7.68;;;6.88;;
23406;SDS011;11876;53.438;18.942;2023-11-18T09:19:35;10.60;;;6.85;;
23406;SDS011;11876;53.438;18.942;2023-11-18T09:22:37;11.55;;;9.68;;
23406;SDS011;11876;53.438;18.942;2023-11-18T09:25:40;12.20;;;9.63;;
23406;SDS011;11876;53.438;18.942;2023-11-18T09:28:42;8.55;;;6.68;;
23406;SDS011;11876;53.438;18.942;2023-11-18T09:31:51;11.75;;;7.10;;
23406;SDS011;11876;53.438;18.942;2023-11-18T09:34:54;7.05;;;6.03;;
23406;SDS011;11876;53.438;18.942;2023-11-18T09:37:56;8.20;;;7.35;;
23406;SDS011;11876;53.438;18.942;2023-11-18T09:41:02;8.65;;;7.72;;
23406;SDS011;11876;53.438;18.942;2023-11-18T09:44:09;9.65;;;7.70;;
23406;SDS011;11876;53.438;18.942;2023-11-18T09:47:13;10.57;;;7.75;;
23406;SDS011;11876;53.438;18.942;2023-11-18T09:50:18;11.32;;;10.10;;
23406;SDS011;11876;53.438;18.942;2023-11-18T09:53:22;9.48;;;6.93;;
23406;SDS011;11876;53.438;18.942;2023-11-18T10:03:28;8.35;;;7.07;;
23406;SDS011;11876;53.438;18.942;2023-11-18T10:06:31;22.58;;;15.57;;
23406;SDS011;11876;53.438;18.942;2023-11-18T10:09:36;9.68;;;7.22;;
23406;SDS011;11876;53.438;18.942;2023-11-18T10:12:43;10.27;;;9.10;;
23406;SDS011;11876;53.438;18.942;2023-11-18T10:15:47;7.75;;;7.03;;
23406;SDS011;11876;53.438;18.942;2023-11-18T10:18:54;10.43;;;8.00;;
23406;SDS011;11876;53.438;18.942;2023-11-18T10:22:00;13.95;;;9.20;;
23406;SDS011;11876;53.438;18.942;2023-11-18T10:25:05;7.95;;;6.28;;
23406;SDS011;11876;53.438;18.942;2023-11-18T10:28:08;9.68;;;7.90;;
23406;SDS011;11876;53.438;18.942;2023-11-18T10:31:29;7.32;;;6.03;;
23406;SDS011;11876;53.438;18.942;2023-11-18T10:34:34;5.63;;;5.00;;
23406;SDS011;11876;53.438;18.942;2023-11-18T10:37:36;6.95;;;5.95;;
23406;SDS011;11876;53.438;18.942;2023-11-18T10:40:45;7.85;;;6.43;;
23406;SDS011;11876;53.438;18.942;2023-11-18T10:43:48;9.95;;;6.90;;
23406;SDS011;11876;53.438;18.942;2023-11-18T10:46:51;7.03;;;6.20;;
23406;SDS011;11876;53.438;18.942;2023-11-18T10:49:55;9.63;;;6.20;;
23406;SDS011;11876;53.438;18.942;2023-11-18T10:53:01;4.03;;;3.63;;
23406;SDS011;11876;53.438;18.942;2023-11-18T10:56:05;10.82;;;5.60;;
23406;SDS011;11876;53.438;18.942;2023-11-18T10:59:08;11.00;;;6.85;;
23406;SDS011;11876;53.438;18.942;2023-11-18T11:02:18;13.52;;;8.15;;
23406;SDS011;11876;53.438;18.942;2023-11-18T11:05:29;7.78;;;5.85;;
23406;SDS011;11876;53.438;18.942;2023-11-18T11:08:37;7.13;;;5.80;;
23406;SDS011;11876;53.438;18.942;2023-11-18T11:11:46;7.63;;;6.82;;
23406;SDS011;11876;53.438;18.942;2023-11-18T11:15:11;10.90;;;7.63;;
23406;SDS011;11876;53.438;18.942;2023-11-18T11:18:23;13.05;;;8.82;;
23406;SDS011;11876;53.438;18.942;2023-11-18T11:21:31;7.15;;;5.30;;
23406;SDS011;11876;53.438;18.942;2023-11-18T11:27:50;7.50;;;6.53;;
23406;SDS011;11876;53.438;18.942;2023-11-18T11:31:08;6.57;;;5.93;;
23406;SDS011;11876;53.438;18.942;2023-11-18T11:37:23;7.10;;;5.45;;
23406;SDS011;11876;53.438;18.942;2023-11-18T11:40:27;15.35;;;6.32;;
23406;SDS011;11876;53.438;18.942;2023-11-18T11:43:31;8.80;;;6.50;;
23406;SDS011;11876;53.438;18.942;2023-11-18T11:46:36;10.48;;;6.63;;
23406;SDS011;11876;53.438;18.942;2023-11-18T11:49:41;9.38;;;7.65;;
23406;SDS011;11876;53.438;18.942;2023-11-18T11:53:14;9.10;;;6.20;;
23406;SDS011;11876;53.438;18.942;2023-11-18T11:56:19;10.60;;;7.03;;
23406;SDS011;11876;53.438;18.942;2023-11-18T12:02:50;11.07;;;6.40;;
23406;SDS011;11876;53.438;18.942;2023-11-18T12:05:56;7.20;;;6.20;;
23406;SDS011;11876;53.438;18.942;2023-11-18T12:09:14;10.13;;;8.35;;
23406;SDS011;11876;53.438;18.942;2023-11-18T12:12:21;7.05;;;6.13;;
23406;SDS011;11876;53.438;18.942;2023-11-18T12:15:50;7.97;;;5.85;;
23406;SDS011;11876;53.438;18.942;2023-11-18T12:19:28;6.55;;;5.28;;
23406;SDS011;11876;53.438;18.942;2023-11-18T12:29:47;7.40;;;6.50;;
23406;SDS011;11876;53.438;18.942;2023-11-18T12:36:13;11.30;;;7.53;;
23406;SDS011;11876;53.438;18.942;2023-11-18T12:43:03;8.98;;;7.32;;
23406;SDS011;11876;53.438;18.942;2023-11-18T12:49:17;8.45;;;6.82;;
23406;SDS011;11876;53.438;18.942;2023-11-18T12:52:26;8.40;;;7.00;;
23406;SDS011;11876;53.438;18.942;2023-11-18T12:55:29;7.90;;;6.75;;
23406;SDS011;11876;53.438;18.942;2023-11-18T12:58:32;6.95;;;6.25;;
23406;SDS011;11876;53.438;18.942;2023-11-18T13:01:35;8.23;;;6.82;;
23406;SDS011;11876;53.438;18.942;2023-11-18T13:04:41;8.48;;;6.55;;
23406;SDS011;11876;53.438;18.942;2023-11-18T13:07:43;8.85;;;6.35;;
23406;SDS011;11876;53.438;18.942;2023-11-18T13:10:46;8.68;;;6.40;;
23406;SDS011;11876;53.438;18.942;2023-11-18T13:13:53;5.57;;;5.03;;
23406;SDS011;11876;53.438;18.942;2023-11-18T13:16:56;7.82;;;6.75;;
23406;SDS011;11876;53.438;18.942;2023-11-18T13:20:10;8.18;;;6.53;;
23406;SDS011;11876;53.438;18.942;2023-11-18T13:23:17;7.60;;;6.03;;
23406;SDS011;11876;53.438;18.942;2023-11-18T13:26:20;5.65;;;4.25;;
23406;SDS011;11876;53.438;18.942;2023-11-18T13:29:24;6.82;;;5.93;;
23406;SDS011;11876;53.438;18.942;2023-11-18T13:32:28;8.60;;;5.72;;
23406;SDS011;11876;53.438;18.942;2023-11-18T13:35:31;7.05;;;6.15;;
23406;SDS011;11876;53.438;18.942;2023-11-18T13:38:39;7.05;;;5.82;;
23406;SDS011;11876;53.438;18.942;2023-11-18T13:41:43;7.80;;;6.25;;
23406;SDS011;11876;53.438;18.942;2023-11-18T13:44:47;6.13;;;5.40;;
23406;SDS011;11876;53.438;18.942;2023-11-18T13:47:55;6.40;;;5.75;;
23406;SDS011;11876;53.438;18.942;2023-11-18T13:50:59;9.30;;;7.20;;
23406;SDS011;11876;53.438;18.942;2023-11-18T13:54:05;7.40;;;6.65;;
23406;SDS011;11876;53.438;18.942;2023-11-18T13:57:08;5.90;;;5.30;;
23406;SDS011;11876;53.438;18.942;2023-11-18T14:00:11;6.22;;;5.63;;
23406;SDS011;11876;53.438;18.942;2023-11-18T14:03:17;6.10;;;5.43;;
23406;SDS011;11876;53.438;18.942;2023-11-18T14:06:22;9.02;;;7.35;;
23406;SDS011;11876;53.438;18.942;2023-11-18T14:09:25;6.53;;;5.78;;
23406;SDS011;11876;53.438;18.942;2023-11-18T14:12:31;9.50;;;6.85;;
23406;SDS011;11876;53.438;18.942;2023-11-18T14:15:33;15.50;;;11.05;;
23406;SDS011;11876;53.438;18.942;2023-11-18T14:18:39;16.88;;;12.93;;
23406;SDS011;11876;53.438;18.942;2023-11-18T14:21:44;27.45;;;19.17;;
23406;SDS011;11876;53.438;18.942;2023-11-18T14:24:47;27.90;;;19.38;;
23406;SDS011;11876;53.438;18.942;2023-11-18T14:27:51;20.70;;;16.25;;
23406;SDS011;11876;53.438;18.942;2023-11-18T14:30:55;46.53;;;31.13;;
23406;SDS011;11876;53.438;18.942;2023-11-18T14:33:57;49.20;;;30.40;;
23406;SDS011;11876;53.438;18.942;2023-11-18T14:37:00;25.05;;;18.15;;
23406;SDS011;11876;53.438;18.942;2023-11-18T14:40:03;23.70;;;17.48;;
23406;SDS011;11876;53.438;18.942;2023-11-18T14:43:06;29.90;;;20.07;;
23406;SDS011;11876;53.438;18.942;2023-11-18T14:46:09;29.77;;;20.23;;
23406;SDS011;11876;53.438;18.942;2023-11-18T14:49:11;24.70;;;18.13;;
23406;SDS011;11876;53.438;18.942;2023-11-18T14:52:14;23.85;;;18.42;;
23406;SDS011;11876;53.438;18.942;2023-11-18T14:55:16;30.23;;;21.20;;
23406;SDS011;11876;53.438;18.942;2023-11-18T14:58:19;28.38;;;20.83;;
23406;SDS011;11876;53.438;18.942;2023-11-18T15:01:21;30.88;;;21.83;;
23406;SDS011;11876;53.438;18.942;2023-11-18T15:04:24;28.08;;;20.63;;
23406;SDS011;11876;53.438;18.942;2023-11-18T15:07:26;24.80;;;18.13;;
23406;SDS011;11876;53.438;18.942;2023-11-18T15:10:29;23.73;;;17.27;;
23406;SDS011;11876;53.438;18.942;2023-11-18T15:13:32;23.42;;;17.83;;
23406;SDS011;11876;53.438;18.942;2023-11-18T15:16:34;30.23;;;19.77;;
23406;SDS011;11876;53.438;18.942;2023-11-18T15:19:37;45.38;;;29.40;;
23406;SDS011;11876;53.438;18.942;2023-11-18T15:22:40;62.15;;;36.05;;
23406;SDS011;11876;53.438;18.942;2023-11-18T15:25:44;98.35;;;54.60;;
23406;SDS011;11876;53.438;18.942;2023-11-18T15:28:46;54.60;;;36.72;;
23406;SDS011;11876;53.438;18.942;2023-11-18T15:31:51;27.67;;;19.88;;
23406;SDS011;11876;53.438;18.942;2023-11-18T15:34:53;23.63;;;17.67;;
23406;SDS011;11876;53.438;18.942;2023-11-18T15:37:56;27.92;;;19.35;;
23406;SDS011;11876;53.438;18.942;2023-11-18T15:40:59;25.63;;;17.88;;
23406;SDS011;11876;53.438;18.942;2023-11-18T15:44:01;24.67;;;18.17;;
23406;SDS011;11876;53.438;18.942;2023-11-18T15:47:05;23.80;;;18.77;;
23406;SDS011;11876;53.438;18.942;2023-11-18T15:50:08;25.80;;;17.92;;
23406;SDS011;11876;53.438;18.942;2023-11-18T15:53:18;24.65;;;17.88;;
23406;SDS011;11876;53.438;18.942;2023-11-18T15:56:21;27.15;;;18.73;;
23406;SDS011;11876;53.438;18.942;2023-11-18T15:59:24;25.03;;;17.93;;
23406;SDS011;11876;53.438;18.942;2023-11-18T16:02:27;24.52;;;14.65;;
23406;SDS011;11876;53.438;18.942;2023-11-18T16:05:30;31.70;;;22.25;;
23406;SDS011;11876;53.438;18.942;2023-11-18T16:08:36;67.40;;;40.63;;
23406;SDS011;11876;53.438;18.942;2023-11-18T16:11:39;62.35;;;41.35;;
23406;SDS011;11876;53.438;18.942;2023-11-18T16:14:41;58.50;;;39.70;;
23406;SDS011;11876;53.438;18.942;2023-11-18T16:17:47;37.97;;;25.83;;
23406;SDS011;11876;53.438;18.942;2023-11-18T16:20:51;29.60;;;22.35;;
23406;SDS011;11876;53.438;18.942;2023-11-18T16:23:54;38.72;;;28.60;;
23406;SDS011;11876;53.438;18.942;2023-11-18T16:26:56;36.97;;;28.70;;
23406;SDS011;11876;53.438;18.942;2023-11-18T16:29:59;58.78;;;39.20;;
23406;SDS011;11876;53.438;18.942;2023-11-18T16:33:01;41.05;;;28.58;;
23406;SDS011;11876;53.438;18.942;2023-11-18T16:36:06;35.22;;;26.20;;
23406;SDS011;11876;53.438;18.942;2023-11-18T16:39:08;44.38;;;29.30;;
23406;SDS011;11876;53.438;18.942;2023-11-18T16:42:11;36.28;;;25.77;;
23406;SDS011;11876;53.438;18.942;2023-11-18T16:45:14;36.17;;;27.20;;
23406;SDS011;11876;53.438;18.942;2023-11-18T16:48:18;62.30;;;35.28;;
23406;SDS011;11876;53.438;18.942;2023-11-18T16:51:20;32.13;;;22.23;;
23406;SDS011;11876;53.438;18.942;2023-11-18T16:54:23;33.15;;;20.90;;
23406;SDS011;11876;53.438;18.942;2023-11-18T16:57:41;30.17;;;21.23;;
23406;SDS011;11876;53.438;18.942;2023-11-18T17:00:44;24.37;;;17.27;;
23406;SDS011;11876;53.438;18.942;2023-11-18T17:03:48;31.73;;;22.85;;
23406;SDS011;11876;53.438;18.942;2023-11-18T17:06:50;45.78;;;29.52;;
23406;SDS011;11876;53.438;18.942;2023-11-18T17:09:53;40.15;;;27.88;;
23406;SDS011;11876;53.438;18.942;2023-11-18T17:12:56;38.75;;;26.63;;
23406;SDS011;11876;53.438;18.942;2023-11-18T17:16:01;39.88;;;26.38;;
23406;SDS011;11876;53.438;18.942;2023-11-18T17:19:04;41.22;;;28.80;;
23406;SDS011;11876;53.438;18.942;2023-11-18T17:22:07;39.25;;;26.40;;
23406;SDS011;11876;53.438;18.942;2023-11-18T17:25:14;42.47;;;27.80;;
23406;SDS011;11876;53.438;18.942;2023-11-18T17:28:17;64.28;;;36.28;;
23406;SDS011;11876;53.438;18.942;2023-11-18T17:31:21;32.40;;;21.30;;
23406;SDS011;11876;53.438;18.942;2023-11-18T17:34:26;42.50;;;28.83;;
23406;SDS011;11876;53.438;18.942;2023-11-18T17:37:29;39.20;;;27.27;;
23406;SDS011;11876;53.438;18.942;2023-11-18T17:40:32;35.58;;;25.10;;
23406;SDS011;11876;53.438;18.942;2023-11-18T17:43:35;36.83;;;25.63;;
23406;SDS011;11876;53.438;18.942;2023-11-18T17:46:37;47.10;;;30.05;;
23406;SDS011;11876;53.438;18.942;2023-11-18T17:49:39;59.28;;;35.63;;
23406;SDS011;11876;53.438;18.942;2023-11-18T17:52:43;70.30;;;39.08;;
23406;SDS011;11876;53.438;18.942;2023-11-18T17:58:48;52.95;;;33.33;;
23406;SDS011;11876;53.438;18.942;2023-11-18T18:01:52;42.60;;;28.42;;
23406;SDS011;11876;53.438;18.942;2023-11-18T18:04:55;34.93;;;22.60;;
23406;SDS011;11876;53.438;18.942;2023-11-18T18:07:58;46.15;;;28.13;;
23406;SDS011;11876;53.438;18.942;2023-11-18T18:11:00;36.30;;;23.85;;
23406;SDS011;11876;53.438;18.942;2023-11-18T18:14:05;30.35;;;19.48;;
23406;SDS011;11876;53.438;18.942;2023-11-18T18:17:07;27.27;;;18.88;;
23406;SDS011;11876;53.438;18.942;2023-11-18T18:20:10;31.33;;;20.63;;
23406;SDS011;11876;53.438;18.942;2023-11-18T18:23:14;26.35;;;17.30;;
23406;SDS011;11876;53.438;18.942;2023-11-18T18:26:17;17.97;;;12.43;;
23406;SDS011;11876;53.438;18.942;2023-11-18T18:29:19;19.60;;;15.15;;
23406;SDS011;11876;53.438;18.942;2023-11-18T18:32:22;22.92;;;15.75;;
23406;SDS011;11876;53.438;18.942;2023-11-18T18:35:25;31.08;;;18.88;;